Tuesday, January 17, 2017, 3:55 AM EST

KPTB, Petersburg, Dinwiddie County Airport

Location: Petersburg, VA, United States Lat: 37.183
Local Time: 3:55 AM EST ( 8:55 GMT) Lon: -77.517
Time Zone: US/Eastern Elev: 193 ft

Show me the last for .
Show Decoded

2017-01-17 03:36 METAR KPTB 170836Z AUTO 00000KT 5SM BR BKN100 05/04 A3025 RMK AO2 =
2017-01-17 03:16 METAR KPTB 170816Z AUTO 00000KT 7SM OVC100 05/04 A3027 RMK AO2 =
2017-01-17 02:56 METAR KPTB 170756Z AUTO 00000KT 7SM OVC100 05/04 A3028 RMK AO2 =
2017-01-17 02:36 METAR KPTB 170736Z AUTO 00000KT 5SM BR SCT100 04/04 A3028 RMK AO2 =
2017-01-17 02:16 METAR KPTB 170716Z AUTO 00000KT 5SM BR CLR 04/04 A3028 RMK AO2 =
2017-01-17 01:56 METAR KPTB 170656Z AUTO 00000KT 5SM BR CLR 05/04 A3028 RMK AO2 =
2017-01-17 01:36 METAR KPTB 170636Z AUTO 00000KT 5SM BR CLR 05/04 A3028 RMK AO2 =
2017-01-17 01:16 METAR KPTB 170616Z AUTO 00000KT 5SM BR BKN003 05/04 A3028 RMK AO2 =
2017-01-17 00:56 METAR KPTB 170556Z AUTO 00000KT 4SM BR OVC003 06/04 A3030 RMK AO2 =
2017-01-17 00:36 METAR KPTB 170536Z AUTO 00000KT 5SM BR OVC005 06/04 A3031 RMK AO2 =
2017-01-17 00:16 METAR KPTB 170516Z AUTO 00000KT 7SM OVC005 06/04 A3032 RMK AO2 =
2017-01-16 23:56 METAR KPTB 170456Z AUTO 00000KT 7SM BKN008 OVC012 06/04 A3032 RMK AO2 =
2017-01-16 23:36 METAR KPTB 170436Z AUTO 00000KT 7SM OVC012 06/04 A3032 RMK AO2 =
2017-01-16 23:16 METAR KPTB 170416Z AUTO 00000KT 7SM OVC014 05/04 A3033 RMK AO2 =
2017-01-16 22:56 METAR KPTB 170356Z AUTO 00000KT 5SM BR OVC014 05/04 A3033 RMK AO2 =
2017-01-16 22:36 METAR KPTB 170336Z AUTO 00000KT 5SM BR OVC011 05/04 A3034 RMK AO2 =
2017-01-16 22:16 METAR KPTB 170316Z AUTO 00000KT 5SM BR OVC009 05/04 A3035 RMK AO2 =
2017-01-16 21:56 METAR KPTB 170256Z AUTO 00000KT 7SM OVC011 05/04 A3036 RMK AO2 =
2017-01-16 21:37 METAR KPTB 170237Z AUTO 00000KT 7SM OVC011 06/04 A3037 RMK AO2 =
2017-01-16 21:16 METAR KPTB 170216Z AUTO 22003KT 10SM OVC013 06/04 A3038 RMK AO2 =
2017-01-16 20:56 METAR KPTB 170156Z AUTO 00000KT 10SM OVC015 06/04 A3038 RMK AO2 =
2017-01-16 20:36 METAR KPTB 170136Z AUTO 00000KT 10SM OVC019 06/04 A3038 RMK AO2 =
2017-01-16 20:16 METAR KPTB 170116Z AUTO 00000KT 10SM OVC019 06/03 A3038 RMK AO2 =
2017-01-16 19:56 METAR KPTB 170056Z AUTO 00000KT 10SM OVC019 06/03 A3038 RMK AO2 =
2017-01-16 19:36 METAR KPTB 170036Z AUTO 00000KT 10SM OVC019 06/03 A3037 RMK AO2 =
2017-01-16 19:16 METAR KPTB 170016Z AUTO 00000KT 10SM OVC019 06/03 A3037 RMK AO2 =
2017-01-16 18:56 METAR KPTB 162356Z AUTO 00000KT 10SM OVC021 06/03 A3038 RMK AO2 =
2017-01-16 18:36 METAR KPTB 162336Z AUTO 00000KT 10SM BKN023 OVC060 05/03 A3038 RMK AO2 =
2017-01-16 18:16 METAR KPTB 162316Z AUTO 00000KT 10SM BKN023 OVC110 05/03 A3038 RMK AO2 =
2017-01-16 17:36 METAR KPTB 162236Z AUTO 00000KT 10SM OVC025 06/03 A3039 RMK AO2 =
2017-01-16 17:16 METAR KPTB 162216Z AUTO 00000KT 10SM BKN017 OVC025 06/03 A3039 RMK AO2 =
2017-01-16 16:56 METAR KPTB 162156Z AUTO 00000KT 10SM OVC019 06/03 A3039 RMK AO2 =
2017-01-16 16:36 METAR KPTB 162136Z AUTO 00000KT 10SM OVC023 06/03 A3039 RMK AO2 =
2017-01-16 16:16 METAR KPTB 162116Z AUTO 00000KT 10SM OVC025 06/03 A3039 RMK AO2 =
2017-01-16 15:57 METAR KPTB 162057Z AUTO 00000KT 10SM OVC025 06/03 A3040 RMK AO2 =
2017-01-16 15:36 METAR KPTB 162036Z AUTO 00000KT 10SM OVC025 07/03 A3039 RMK AO2 =
2017-01-16 15:16 METAR KPTB 162016Z AUTO 00000KT 10SM OVC025 06/03 A3039 RMK AO2 =
2017-01-16 14:56 METAR KPTB 161956Z AUTO 23003KT 10SM OVC025 06/03 A3040 RMK AO2 =
2017-01-16 14:36 METAR KPTB 161936Z AUTO 00000KT 10SM OVC025 06/02 A3040 RMK AO2 =
2017-01-16 14:16 METAR KPTB 161916Z AUTO 00000KT 10SM OVC025 06/02 A3040 RMK AO2 =
2017-01-16 13:56 METAR KPTB 161856Z AUTO 00000KT 10SM OVC025 05/02 A3041 RMK AO2 =
2017-01-16 13:36 METAR KPTB 161836Z AUTO 00000KT 10SM OVC023 05/02 A3041 RMK AO2 =
2017-01-16 13:16 METAR KPTB 161816Z AUTO 00000KT 10SM OVC023 05/02 A3042 RMK AO2 =
2017-01-16 12:56 METAR KPTB 161756Z AUTO 11003KT 10SM OVC023 05/02 A3043 RMK AO2 =
2017-01-16 12:36 METAR KPTB 161736Z AUTO 17003KT 10SM OVC025 04/02 A3044 RMK AO2 =
2017-01-16 12:16 METAR KPTB 161716Z AUTO 00000KT 10SM -DZ OVC025 04/02 A3045 RMK AO2 =
2017-01-16 11:56 METAR KPTB 161656Z AUTO 00000KT 10SM OVC025 04/01 A3046 RMK AO2 =
2017-01-16 11:36 METAR KPTB 161636Z AUTO 00000KT 10SM OVC025 04/01 A3048 RMK AO2 =
2017-01-16 11:16 METAR KPTB 161616Z AUTO 00000KT 10SM OVC025 03/01 A3049 RMK AO2 =
2017-01-16 10:56 METAR KPTB 161556Z AUTO 00000KT 10SM OVC027 03/01 A3050 RMK AO2 =
2017-01-16 10:36 METAR KPTB 161536Z AUTO 00000KT 10SM OVC029 03/02 A3050 RMK AO2 =
2017-01-16 10:16 METAR KPTB 161516Z AUTO 00000KT 10SM OVC029 03/01 A3050 RMK AO2 =
2017-01-16 09:56 METAR KPTB 161456Z AUTO 00000KT 10SM SCT018 OVC029 03/01 A3051 RMK AO2 =
2017-01-16 09:36 METAR KPTB 161436Z AUTO 00000KT 10SM BKN018 OVC029 03/01 A3049 RMK AO2 =
2017-01-16 09:16 METAR KPTB 161416Z AUTO 00000KT 10SM SCT018 OVC033 03/01 A3049 RMK AO2 =
2017-01-16 08:56 METAR KPTB 161356Z AUTO 10003KT 7SM SCT006 BKN035 OVC041 03/01 A3047 RMK AO2 =
2017-01-16 08:36 METAR KPTB 161336Z AUTO 00000KT 10SM SCT004 BKN031 OVC038 03/02 A3047 RMK AO2 =
2017-01-16 08:16 METAR KPTB 161316Z AUTO 00000KT 10SM OVC031 03/02 A3047 RMK AO2 =
2017-01-16 07:56 METAR KPTB 161256Z AUTO 00000KT 7SM -RA OVC035 02/02 A3047 RMK AO2 =
2017-01-16 07:36 METAR KPTB 161236Z AUTO 00000KT 10SM -RA BKN035 OVC045 02/02 A3046 RMK AO2 =
2017-01-16 07:16 METAR KPTB 161216Z AUTO 00000KT 10SM SCT037 OVC043 02/01 A3046 RMK AO2 =
2017-01-16 06:56 METAR KPTB 161156Z AUTO 00000KT 10SM BKN037 OVC043 02/02 A3045 RMK AO2 =
2017-01-16 06:36 METAR KPTB 161136Z AUTO 00000KT 10SM SCT004 BKN037 OVC049 02/02 A3046 RMK AO2
                 P0001 =
2017-01-16 06:16 METAR KPTB 161116Z AUTO 00000KT 7SM BKN035 OVC048 02/02 A3045 RMK AO2 P0001 =
2017-01-16 05:56 METAR KPTB 161056Z AUTO 00000KT 4SM -DZ BKN035 BKN041 OVC060 02/01 A3045 RMK AO2
                 =
2017-01-16 05:36 METAR KPTB 161036Z AUTO 00000KT 3SM -RA SCT010 BKN032 OVC041 02/01 A3045 RMK AO2
                 P0002 =
2017-01-16 05:16 METAR KPTB 161016Z AUTO 00000KT 3SM -DZ BKN007 BKN011 OVC033 03/02 A3045 RMK AO2
                 P0001 =
2017-01-16 04:56 METAR KPTB 160956Z AUTO 00000KT 4SM -RA BKN007 BKN011 OVC022 03/02 A3044 RMK AO2
                 =
2017-01-16 04:36 METAR KPTB 160936Z AUTO 00000KT 5SM -RA SCT008 OVC022 03/02 A3045 RMK AO2 P0001
                 =
2017-01-16 04:16 METAR KPTB 160916Z AUTO 00000KT 7SM -RA BKN008 SCT014 OVC026 03/02 A3045 RMK AO2
                 P0001 =
2017-01-16 03:56 METAR KPTB 160856Z AUTO 00000KT 4SM -DZ SCT008 OVC024 03/02 A3044 RMK AO2 =

Support USWX by starting your Amazon purchase here.